Latest Weather Observations for Morawa Airport

IDW60801

Issued at 8:04 am WST Sunday 25 June 2017 (issued every 30 minutes, with the page automatically refreshed every 10 minutes)

About weather observations | Map of weather stations | Latest weather observations for WA | Other Formats
Station Details ID: 008296 Name: MORAWA AIRPORT Lat: -29.20 Lon: 116.02 Height: 271.4 m
Data from the previous 72 hours. | See also: Recent months at Morawa Airport
Date/Time
WST
Temp
°C
App
Temp
°C
Dew
Point
°C
Rel
Hum
%
Delta-T
°C
Wind Press
QNH
hPa
Press
MSL
hPa
Rain since
9am
mm
Dir  Spd
km/h
Gust
km/h
Spd
kts
Gust
kts
25/08:00am 9.1 5.0 4.5 73 2.1 SE 15 20 8 11 1024.9 1024.8 0.0
25/07:30am 8.3 4.2 4.5 77 1.7 SE 15 20 8 11 1024.4 1024.3 0.0
25/07:00am 8.1 4.1 4.7 79 1.5 SE 15 19 8 10 1024.0 1023.9 0.0
25/06:30am 8.2 3.8 5.0 80 1.4 SE 17 24 9 13 1023.6 1023.5 0.0
25/06:00am 8.2 3.9 5.3 82 1.3 SSE 17 28 9 15 1023.3 1023.2 0.0
25/05:30am 8.4 4.6 5.9 84 1.2 SSE 15 20 8 11 1023.3 1023.2 0.0
25/05:00am 8.4 4.6 6.0 85 1.1 SE 15 20 8 11 1022.9 1022.7 0.0
25/04:30am 8.8 5.1 6.1 83 1.3 SSE 15 19 8 10 1022.9 1022.7 0.0
25/04:00am 9.2 6.2 6.1 81 1.4 SE 11 17 6 9 1022.9 1022.7 0.0
25/03:30am 9.0 6.4 6.3 83 1.3 SE 9 15 5 8 1023.1 1022.9 0.0
25/03:00am 9.3 6.7 6.0 80 1.5 SE 9 13 5 7 1022.9 1022.7 0.0
25/02:30am 9.9 7.7 6.4 79 1.7 SSE 7 13 4 7 1023.2 1023.0 0.0
25/02:00am 10.2 8.6 6.4 77 1.8 SSE 4 7 2 4 1023.3 1023.2 0.0
25/01:30am 10.6 8.5 6.6 76 1.9 SE 7 11 4 6 1023.3 1023.2 0.0
25/01:00am 11.2 8.3 6.5 73 2.2 SE 11 17 6 9 1023.1 1022.9 0.0
25/12:30am 12.0 8.7 6.5 69 2.6 SE 13 20 7 11 1023.0 1022.8 0.0
25/12:00am 12.7 8.1 6.7 67 2.9 SE 20 26 11 14 1022.8 1022.6 0.0
 
Date/Time
WST
Temp
°C
App
Temp
°C
Dew
Point
°C
Rel
Hum
%
Delta-T
°C
Wind Press
QNH
hPa
Press
MSL
hPa
Rain since
9am
mm
Dir  Spd
km/h
Gust
km/h
Spd
kts
Gust
kts
24/11:30pm 13.0 8.4 6.6 65 3.1 SE 20 30 11 16 1022.9 1022.7 0.0
24/11:00pm 12.6 8.2 6.6 67 2.9 SE 19 26 10 14 1023.1 1022.9 0.0
24/10:30pm 12.9 8.0 6.7 66 3.0 SE 22 30 12 16 1023.0 1022.8 0.0
24/10:00pm 13.4 8.1 6.7 64 3.3 SE 24 33 13 18 1022.7 1022.5 0.0
24/09:30pm 14.1 8.4 6.7 61 3.6 SE 26 35 14 19 1022.6 1022.4 0.0
24/09:00pm 14.5 8.4 6.8 60 3.8 SE 28 41 15 22 1022.4 1022.2 0.0
24/08:30pm 14.4 8.4 7.2 62 3.6 SE 28 39 15 21 1022.1 1021.9 0.0
24/08:00pm 14.7 8.3 7.0 60 3.8 SE 30 43 16 23 1021.8 1021.6 0.0
24/07:30pm 15.4 9.9 7.4 59 4.0 SE 26 39 14 21 1021.4 1021.2 0.0
24/07:00pm 15.8 10.2 7.3 57 4.3 SE 26 33 14 18 1020.8 1020.7 0.0
24/06:30pm 15.9 11.7 7.4 57 4.3 SE 19 26 10 14 1020.6 1020.5 0.0
24/06:00pm 16.8 11.3 7.4 54 4.8 SE 26 35 14 19 1020.2 1020.1 0.0
24/05:30pm 17.7 11.8 7.4 51 5.3 SE 28 35 15 19 1019.8 1019.6 0.0
24/05:00pm 18.7 12.8 7.5 48 5.7 SE 28 35 15 19 1019.6 1019.4 0.0
24/04:30pm 19.9 14.0 7.3 44 6.5 SE 28 37 15 20 1019.2 1019.0 0.0
24/04:00pm 20.6 15.2 6.2 39 7.3 SE 24 32 13 17 1019.1 1018.9 0.0
24/03:30pm 20.9 15.9 4.5 34 8.1 ESE 20 32 11 17 1019.0 1018.8 0.0
24/03:00pm 21.5 16.1 4.6 33 8.4 SE 22 33 12 18 1018.9 1018.7 0.0
24/02:30pm 21.5 16.2 5.0 34 8.2 ESE 22 33 12 18 1018.9 1018.7 0.0
24/02:00pm 20.8 15.6 5.6 37 7.6 ESE 22 32 12 17 1019.0 1018.8 0.0
24/01:30pm 20.9 16.1 7.2 41 7.1 ESE 22 32 12 17 1019.3 1019.1 0.0
24/01:00pm 20.4 15.2 7.4 43 6.7 ESE 24 33 13 18 1019.7 1019.5 0.0
24/12:30pm 19.6 14.6 8.0 47 6.1 ESE 24 35 13 19 1020.2 1020.1 0.0
24/12:00pm 19.1 14.6 8.4 50 5.6 SE 22 32 12 17 1020.8 1020.7 0.0
24/11:30am 17.8 13.3 8.6 55 4.8 SE 22 32 12 17 1021.4 1021.2 0.0
24/11:00am 17.1 13.0 8.8 58 4.3 ESE 20 28 11 15 1022.0 1021.8 0.0
24/10:30am 15.9 11.8 8.6 62 3.8 SE 20 28 11 15 1022.4 1022.2 0.0
24/10:00am 15.1 11.3 9.2 68 3.1 ESE 19 28 10 15 1022.7 1022.5 0.0
24/09:30am 13.9 10.0 9.3 74 2.4 ESE 20 30 11 16 1023.1 1022.9 0.0
24/09:00am 12.6 9.2 9.2 80 1.7 ESE 17 20 9 11 1023.0 1022.8 0.0
24/08:30am 11.7 9.1 9.4 86 1.2 ESE 13 20 7 11 1022.7 1022.5 0.0
24/08:00am 10.7 9.3 9.5 92 0.6 E 7 15 4 8 1022.5 1022.3 0.0
24/07:30am 9.5 8.6 9.2 98 0.2 ENE 4 6 2 3 1021.9 1021.7 0.0
24/07:00am 9.4 7.9 9.1 98 0.1 ESE 7 13 4 7 1021.5 1021.3 0.0
24/06:30am 9.5 8.1 8.9 96 0.3 E 6 15 3 8 1021.1 1021.0 0.0
24/06:00am 9.7 6.6 8.9 95 0.4 ESE 15 20 8 11 1020.7 1020.6 0.0
24/05:30am 9.9 6.4 8.8 93 0.5 SE 17 26 9 14 1020.4 1020.3 0.0
24/05:00am 10.2 7.0 8.6 90 0.8 SE 15 22 8 12 1020.4 1020.3 0.0
24/04:30am 10.4 7.6 8.7 89 0.8 SE 13 19 7 10 1020.3 1020.2 0.0
24/04:00am 10.2 7.7 8.3 88 0.9 SSE 11 15 6 8 1020.4 1020.3 0.0
24/03:30am 10.4 8.7 8.2 86 1.1 SE 7 17 4 9 1020.4 1020.3 0.0
24/03:00am 10.8 8.7 8.2 84 1.3 SE 9 13 5 7 1020.5 1020.4 0.0
24/02:30am 10.8 8.6 8.0 83 1.4 ESE 9 13 5 7 1020.4 1020.3 0.0
24/02:00am 11.3 8.0 8.2 81 1.5 ESE 15 20 8 11 1020.2 1020.1 0.0
24/01:30am 11.3 8.7 7.8 79 1.7 ESE 11 17 6 9 1020.1 1019.9 0.0
24/01:00am 11.5 8.9 7.8 78 1.8 ESE 11 17 6 9 1020.0 1019.8 0.0
24/12:30am 11.6 9.0 7.7 77 1.9 ESE 11 15 6 8 1019.9 1019.7 0.0
24/12:00am 11.5 9.5 6.4 71 2.4 SE 6 9 3 5 1019.9 1019.7 0.0
 
Date/Time
WST
Temp
°C
App
Temp
°C
Dew
Point
°C
Rel
Hum
%
Delta-T
°C
Wind Press
QNH
hPa
Press
MSL
hPa
Rain since
9am
mm
Dir  Spd
km/h
Gust
km/h
Spd
kts
Gust
kts
23/11:30pm 12.4 9.4 6.2 66 3.0 ESE 11 17 6 9 1019.8 1019.6 0.0
23/11:00pm 13.3 9.5 5.7 60 3.6 ESE 15 24 8 13 1019.9 1019.7 0.0
23/10:30pm 14.4 10.8 5.2 54 4.4 ESE 13 17 7 9 1019.8 1019.6 0.0
23/10:00pm 14.6 11.6 4.0 49 4.9 ESE 9 11 5 6 1019.6 1019.4 0.0
23/09:30pm 16.0 12.6 3.8 44 5.7 ESE 11 13 6 7 1019.3 1019.1 0.0
23/09:00pm 16.7 13.6 3.7 42 6.1 E 9 13 5 7 1019.3 1019.1 0.0
23/08:30pm 16.7 13.7 4.1 43 6.0 ENE 9 13 5 7 1019.2 1019.0 0.0
23/08:00pm 16.9 14.0 4.9 45 5.8 ENE 9 11 5 6 1019.1 1018.9 0.0
23/07:30pm 16.9 14.2 5.5 47 5.6 E 9 11 5 6 1018.9 1018.7 0.0
23/07:00pm 16.8 14.6 6.3 50 5.2 E 7 9 4 5 1018.4 1018.2 0.0
23/06:30pm 17.0 14.9 6.8 51 5.1 E 7 9 4 5 1018.0 1017.8 0.0
23/06:00pm 17.2 15.1 6.7 50 5.3 E 7 9 4 5 1017.7 1017.5 0.0
23/05:30pm 17.9 15.9 7.0 49 5.5 ENE 7 7 4 4 1017.1 1017.0 0.0
23/05:00pm 18.1 16.2 7.5 50 5.4 NE 7 9 4 5 1016.8 1016.6 0.0
23/04:30pm 18.8 16.3 8.2 50 5.5 NE 11 17 6 9 1016.6 1016.4 0.0
23/04:00pm 18.6 15.3 8.0 50 5.5 NE 15 20 8 11 1016.6 1016.4 0.0
23/03:30pm 18.6 14.3 9.4 55 4.9 NE 22 28 12 15 1016.5 1016.3 0.0
23/03:00pm 18.8 16.5 10.4 58 4.6 NE 13 26 7 14 1016.4 1016.2 0.0
23/02:30pm 19.4 16.0 9.3 52 5.4 NNE 17 24 9 13 1016.3 1016.1 0.0
23/02:00pm 19.5 15.7 9.7 53 5.3 NNE 20 33 11 18 1016.4 1016.2 0.0
23/01:30pm 18.7 15.5 10.0 57 4.7 N 17 28 9 15 1016.5 1016.3 0.0
23/01:00pm 18.6 15.0 9.7 56 4.8 N 19 30 10 16 1016.8 1016.6 0.0
23/12:30pm 18.1 14.4 10.2 60 4.3 N 20 30 11 16 1017.0 1016.9 0.0
23/12:00pm 18.4 14.8 10.5 60 4.3 N 20 33 11 18 1017.1 1017.0 0.0
23/11:30am 17.8 14.4 11.1 65 3.7 N 20 30 11 16 1017.6 1017.4 0.0
23/11:00am 17.0 12.9 11.3 69 3.1 N 24 33 13 18 1017.9 1017.7 0.0
23/10:30am 16.3 12.1 11.2 72 2.8 N 24 33 13 18 1018.0 1017.8 0.0
23/10:00am 15.3 11.9 11.3 77 2.2 N 20 28 11 15 1018.0 1017.8 0.0
23/09:30am 14.1 10.9 11.3 83 1.5 N 19 28 10 15 1018.0 1017.8 0.0
23/09:00am 13.6 10.7 12.2 91 0.8 N 19 28 10 15 1017.6 1017.4 0.4
23/08:30am 12.6 10.1 12.4 99 0.1 N 17 24 9 13 1017.1 1017.0 0.4
23/08:00am 11.9 10.0 11.9 100 0.0 N 13 20 7 11 1016.7 1016.5 0.4
23/07:30am 11.4 10.1 11.4 100 0.0 N 9 15 5 8 1016.6 1016.4 0.4
23/07:00am 11.5 9.1 11.5 100 0.0 N 15 22 8 12 1016.4 1016.2 0.4
23/06:30am 11.2 8.7 11.2 100 0.0 N 15 17 8 9 1016.1 1015.9 0.4
23/06:00am 11.2 9.1 11.2 100 0.0 NNW 13 19 7 10 1016.0 1015.8 0.4
23/05:30am 11.6 9.6 11.6 100 0.0 NNW 13 15 7 8 1016.2 1016.0 0.4
23/05:00am 11.3 9.6 11.3 100 0.0 NNW 11 15 6 8 1016.0 1015.8 0.4
23/04:30am 11.4 9.0 11.4 100 0.0 NNW 15 26 8 14 1015.8 1015.6 0.4
23/04:00am 11.1 9.0 11.1 100 0.0 NNW 13 19 7 10 1015.8 1015.6 0.4
23/03:30am 11.3 9.2 11.3 100 0.0 NNW 13 19 7 10 1016.1 1015.9 0.4
23/03:00am 11.4 9.4 11.4 100 0.0 NNW 13 19 7 10 1016.0 1015.8 0.4
23/02:30am 11.7 9.4 11.7 100 0.0 NNW 15 22 8 12 1016.0 1015.8 0.4
23/02:00am 11.6 8.9 11.6 100 0.0 NNW 17 22 9 12 1015.9 1015.7 0.4
23/01:30am 11.6 8.5 11.6 100 0.0 NNW 19 24 10 13 1016.1 1015.9 0.4
23/01:00am 11.7 9.4 11.7 100 0.0 NNW 15 20 8 11 1016.1 1015.9 0.4
23/12:30am 12.0 10.2 12.0 100 0.0 NNW 13 17 7 9 1016.4 1016.2 0.4
23/12:00am 12.3 10.2 12.3 100 0.0 NNW 15 20 8 11 1016.5 1016.3 0.4
 
Date/Time
WST
Temp
°C
App
Temp
°C
Dew
Point
°C
Rel
Hum
%
Delta-T
°C
Wind Press
QNH
hPa
Press
MSL
hPa
Rain since
9am
mm
Dir  Spd
km/h
Gust
km/h
Spd
kts
Gust
kts
22/11:30pm 12.5 10.4 12.5 100 0.0 NNW 15 20 8 11 1016.7 1016.5 0.4
22/11:00pm 12.5 11.2 12.5 100 0.0 NNW 11 15 6 8 1016.8 1016.6 0.4
22/10:30pm 12.7 11.1 12.7 100 0.0 NNW 13 19 7 10 1016.9 1016.7 0.4
22/10:00pm 12.8 11.2 12.8 100 0.0 NNW 13 19 7 10 1016.9 1016.7 0.4
22/09:30pm 12.9 11.3 12.9 100 0.0 NNW 13 19 7 10 1016.9 1016.7 0.4
22/09:00pm 13.3 11.4 13.1 99 0.1 NNW 15 20 8 11 1016.9 1016.7 0.4
22/08:30pm 13.5 11.6 13.0 97 0.3 NW 15 20 8 11 1016.8 1016.6 0.4
22/08:00pm 13.8 11.6 13.2 96 0.3 NW 17 22 9 12 1016.9 1016.7 0.4
22/07:30pm 13.8 11.4 12.5 92 0.7 NW 17 26 9 14 1016.7 1016.5 0.4
22/07:00pm 14.1 12.0 12.5 90 0.9 NW 15 20 8 11 1016.4 1016.2 0.4
22/06:30pm 14.3 12.2 12.3 88 1.1 NW 15 19 8 10 1016.3 1016.1 0.4
22/06:00pm 14.9 11.9 12.4 85 1.4 WNW 20 28 11 15 1016.1 1015.9 0.4
22/05:30pm 15.4 12.4 11.8 79 2.0 WNW 19 26 10 14 1015.9 1015.7 0.4
22/05:00pm 16.1 11.6 11.5 74 2.5 WNW 26 41 14 22 1015.6 1015.4 0.4
22/04:30pm 16.4 10.9 11.8 74 2.5 W 32 46 17 25 1015.8 1015.6 0.4
22/04:00pm 18.0 13.2 10.4 61 4.1 W 26 35 14 19 1015.4 1015.2 0.4
22/03:30pm 18.0 12.5 10.6 62 4.0 W 30 41 16 22 1015.2 1015.0 0.4
22/03:00pm 18.1 13.1 11.0 63 3.9 W 28 41 15 22 1015.1 1014.9 0.4
22/02:34pm 19.3 13.8 10.6 57 4.8 WNW 30 50 16 27 1015.1 1014.9 0.4
22/02:30pm 19.4 14.2 10.4 56 4.9 W 28 43 15 23 1015.0 1014.8 0.4
22/02:00pm 19.3 14.2 10.6 57 4.8 W 28 46 15 25 1015.1 1014.9 0.4
22/01:30pm 18.6 12.7 10.4 59 4.5 W 32 46 17 25 1015.2 1015.0 0.4
22/01:00pm 17.9 13.0 12.6 71 3.0 W 30 41 16 22 1015.3 1015.1 0.4
22/12:30pm 17.9 13.2 12.1 69 3.2 WNW 28 37 15 20 1015.6 1015.4 0.4
22/12:00pm 17.6 12.3 11.4 67 3.4 WNW 30 43 16 23 1015.9 1015.7 0.4
22/11:37am 17.6 13.0 12.3 71 3.0 WNW 28 46 15 25 1016.2 1016.0 0.4
22/11:30am 17.3 12.7 12.4 73 2.7 WNW 28 41 15 22 1016.3 1016.1 0.4
22/11:00am 16.1 12.7 13.6 85 1.4 WNW 24 33 13 18 1016.9 1016.7 0.4
22/10:30am 15.6 13.2 14.3 92 0.7 WNW 20 32 11 17 1017.1 1017.0 0.4
22/10:00am 14.0 11.5 14.0 100 0.0 WNW 20 28 11 15 1017.6 1017.4 0.4
22/09:30am 14.4 12.1 14.2 99 0.1 NW 19 26 10 14 1017.7 1017.5 0.0
22/09:00am 13.5 11.4 13.5 100 0.0 NW 17 26 9 14 1017.6 1017.4 0.2
22/08:30am 12.3 9.8 12.3 100 0.0 NW 17 24 9 13 1017.6 1017.4 0.2

Other Formats:

Comma delimited format used in spreadsheet applications
http://www.bom.gov.au/fwo/IDW60801/IDW60801.94417.axf

JavaScript Object Notation format (JSON) in row-major order
http://www.bom.gov.au/fwo/IDW60801/IDW60801.94417.json